Franklin, North Carolina
Current Conditions -  °F | °C
As of 7:35 PM on Friday 31 Oct 2014 (Local Time) from KRHP Reporting Station
Drizzle Drizzle  
Wind Chill: 46°   Ceiling: 2900
Heat Index: 46°   Visibility: 10mi
Dew Point: 42°   Wind: 3mph
Humidity: 87%   Direction: 290°WNW
Pressure: 29.88"   Gusts: NA
Location:  35.18°N, 83.38°W
Report Text: KRHP 312335Z AUTO 29003KT 10SM -DZ BKN029 OVC036 08/06 A2988 RMK AO2 T00760055
Loading
Personal Weather Stations






























Interactive Weather Map
Tropical Storm Tracking
New forecast layout! Learn more

10-Day Weather Forecast

Advertisements
Track Severe Weather on mobile